createdAt,value
2017-09-03T00:00:03.389Z,1015.11
2017-09-03T00:01:03.380Z,1015.12
2017-09-03T00:02:03.371Z,1015.12
2017-09-03T00:03:03.363Z,1015.11
2017-09-03T00:04:03.352Z,1015.11
2017-09-03T00:05:03.347Z,1015.13
2017-09-03T00:06:03.339Z,1015.10
2017-09-03T00:07:03.329Z,1015.11
2017-09-03T00:08:03.319Z,1015.09
2017-09-03T00:09:03.311Z,1015.10
2017-09-03T00:10:03.303Z,1015.13
2017-09-03T00:11:03.295Z,1015.09
2017-09-03T00:12:03.282Z,1015.07
2017-09-03T00:13:03.270Z,1015.08
2017-09-03T00:14:03.278Z,1015.08
2017-09-03T00:15:03.252Z,1015.06
2017-09-03T00:16:03.242Z,1015.05
2017-09-03T00:17:03.233Z,1015.08
2017-09-03T00:18:03.225Z,1015.08
2017-09-03T00:19:03.216Z,1015.03
2017-09-03T00:20:03.205Z,1015.04
2017-09-03T00:21:03.200Z,1015.05
2017-09-03T00:22:03.191Z,1015.04
2017-09-03T00:23:03.183Z,1015.03
2017-09-03T00:24:03.173Z,1014.95
2017-09-03T00:25:03.164Z,1014.96
2017-09-03T00:26:03.156Z,1014.95
2017-09-03T00:27:03.145Z,1014.98
2017-09-03T00:28:03.137Z,1014.94
2017-09-03T00:29:03.123Z,1014.93
2017-09-03T00:30:03.115Z,1014.96
2017-09-03T00:31:03.104Z,1014.91
2017-09-03T00:32:03.094Z,1014.90
2017-09-03T00:33:03.089Z,1014.92
2017-09-03T00:34:03.081Z,1014.91
2017-09-03T00:35:03.072Z,1014.90
2017-09-03T00:36:03.062Z,1014.89
2017-09-03T00:37:03.050Z,1014.89
2017-09-03T00:38:03.038Z,1014.90
2017-09-03T00:39:03.031Z,1014.89
2017-09-03T00:40:03.021Z,1014.89
2017-09-03T00:41:03.010Z,1014.91
2017-09-03T00:42:03.002Z,1014.89
2017-09-03T00:43:02.992Z,1014.91
2017-09-03T00:44:02.984Z,1014.92
2017-09-03T00:45:02.979Z,1014.91
2017-09-03T00:46:02.968Z,1014.88
2017-09-03T00:47:02.964Z,1014.90
2017-09-03T00:48:02.949Z,1014.89
2017-09-03T00:49:02.940Z,1014.89
2017-09-03T00:50:02.931Z,1014.91
2017-09-03T00:51:02.923Z,1014.82
2017-09-03T00:52:02.911Z,1014.82
2017-09-03T00:53:02.903Z,1014.82
2017-09-03T00:54:02.891Z,1014.81
2017-09-03T00:55:02.882Z,1014.78
2017-09-03T00:56:02.870Z,1014.86
2017-09-03T00:57:02.860Z,1014.88
2017-09-03T00:58:02.851Z,1014.81
2017-09-03T00:59:02.843Z,1014.81
2017-09-03T01:00:02.832Z,1014.85
2017-09-03T01:01:02.827Z,1014.80
2017-09-03T01:02:02.817Z,1014.78
2017-09-03T01:03:02.809Z,1014.79
2017-09-03T01:04:02.803Z,1014.71
2017-09-03T01:05:02.790Z,1014.76
2017-09-03T01:06:02.780Z,1014.78
2017-09-03T01:07:02.770Z,1014.75
2017-09-03T01:08:02.760Z,1014.77
2017-09-03T01:09:02.747Z,1014.77
2017-09-03T01:10:02.741Z,1014.72
2017-09-03T01:11:02.728Z,1014.76
2017-09-03T01:12:02.719Z,1014.72
2017-09-03T01:13:02.710Z,1014.76
2017-09-03T01:14:02.700Z,1014.76
2017-09-03T01:15:02.692Z,1014.72
2017-09-03T01:16:02.679Z,1014.76
2017-09-03T01:17:02.676Z,1014.74
2017-09-03T01:18:02.667Z,1014.76
2017-09-03T01:19:02.662Z,1014.74
2017-09-03T01:20:02.647Z,1014.70
2017-09-03T01:21:02.637Z,1014.71
2017-09-03T01:22:02.627Z,1014.74
2017-09-03T01:23:02.618Z,1014.70
2017-09-03T01:24:02.609Z,1014.70
2017-09-03T01:25:02.596Z,1014.67
2017-09-03T01:26:02.586Z,1014.67
2017-09-03T01:27:02.577Z,1014.64
2017-09-03T01:28:02.565Z,1014.65
2017-09-03T01:29:02.560Z,1014.68
2017-09-03T01:30:02.548Z,1014.63
2017-09-03T01:31:02.538Z,1014.65
2017-09-03T01:32:02.526Z,1014.71
2017-09-03T01:33:02.524Z,1014.65
2017-09-03T01:34:02.513Z,1014.64
2017-09-03T01:35:02.525Z,1014.61
2017-09-03T01:36:02.493Z,1014.67
2017-09-03T01:37:02.479Z,1014.64
2017-09-03T01:38:02.471Z,1014.66
2017-09-03T01:39:02.460Z,1014.63
2017-09-03T01:40:02.450Z,1014.67
2017-09-03T01:41:02.446Z,1014.69
2017-09-03T01:42:02.435Z,1014.69
2017-09-03T01:43:02.441Z,1014.63
2017-09-03T01:44:02.421Z,1014.63
2017-09-03T01:45:02.406Z,1014.63
2017-09-03T01:46:02.397Z,1014.59
2017-09-03T01:47:02.387Z,1014.59
2017-09-03T01:48:02.377Z,1014.55
2017-09-03T01:49:02.364Z,1014.59
2017-09-03T01:50:02.352Z,1014.55
2017-09-03T01:51:02.345Z,1014.52
2017-09-03T01:52:02.332Z,1014.54
2017-09-03T01:53:02.325Z,1014.48
2017-09-03T01:54:02.314Z,1014.47
2017-09-03T01:55:02.304Z,1014.43
2017-09-03T01:56:02.293Z,1014.44
2017-09-03T01:57:02.289Z,1014.42
2017-09-03T01:58:02.280Z,1014.38
2017-09-03T01:59:02.269Z,1014.41
2017-09-03T02:00:02.258Z,1014.41
2017-09-03T02:01:02.249Z,1014.42
2017-09-03T02:02:02.240Z,1014.42
2017-09-03T02:03:02.231Z,1014.38
2017-09-03T02:04:02.220Z,1014.37
2017-09-03T02:05:02.207Z,1014.37
2017-09-03T02:06:02.198Z,1014.34
2017-09-03T02:07:02.186Z,1014.34
2017-09-03T02:08:02.176Z,1014.29
2017-09-03T02:09:02.166Z,1014.30
2017-09-03T02:10:02.157Z,1014.35
2017-09-03T02:11:02.154Z,1014.31
2017-09-03T02:12:02.136Z,1014.28
2017-09-03T02:13:02.130Z,1014.29
2017-09-03T02:14:02.120Z,1014.30
2017-09-03T02:15:02.113Z,1014.35
2017-09-03T02:16:02.102Z,1014.35
2017-09-03T02:17:02.093Z,1014.41
2017-09-03T02:18:02.086Z,1014.35
2017-09-03T02:19:02.073Z,1014.39
2017-09-03T02:20:02.061Z,1014.40
2017-09-03T02:21:02.048Z,1014.39
2017-09-03T02:22:02.038Z,1014.42
2017-09-03T02:23:02.029Z,1014.39
2017-09-03T02:24:02.017Z,1014.41
2017-09-03T02:25:02.008Z,1014.39
2017-09-03T02:26:02.001Z,1014.42
2017-09-03T02:27:01.990Z,1014.37
2017-09-03T02:28:01.978Z,1014.36
2017-09-03T02:29:01.972Z,1014.37
2017-09-03T02:30:01.964Z,1014.40
2017-09-03T02:31:01.954Z,1014.38
2017-09-03T02:32:01.943Z,1014.39
2017-09-03T02:33:01.933Z,1014.43
2017-09-03T02:34:01.925Z,1014.42
2017-09-03T02:35:01.913Z,1014.40
2017-09-03T02:36:01.903Z,1014.38
2017-09-03T02:37:01.889Z,1014.37
2017-09-03T02:38:01.880Z,1014.37
2017-09-03T02:39:01.870Z,1014.33
2017-09-03T02:40:01.860Z,1014.28
2017-09-03T02:41:01.854Z,1014.21
2017-09-03T02:42:01.843Z,1014.23
2017-09-03T02:43:01.832Z,1014.22
2017-09-03T02:44:01.822Z,1014.29
2017-09-03T02:45:01.809Z,1014.23
2017-09-03T02:46:01.799Z,1014.26
2017-09-03T02:47:01.790Z,1014.31
2017-09-03T02:48:01.778Z,1014.28
2017-09-03T02:49:01.768Z,1014.21
2017-09-03T02:50:01.762Z,1014.31
2017-09-03T02:51:01.748Z,1014.24
2017-09-03T02:52:01.738Z,1014.29
2017-09-03T02:53:01.734Z,1014.21
2017-09-03T02:54:01.723Z,1014.25
2017-09-03T02:55:01.713Z,1014.29
2017-09-03T02:56:01.702Z,1014.27
2017-09-03T02:57:01.693Z,1014.24
2017-09-03T02:58:01.681Z,1014.28
2017-09-03T02:59:01.672Z,1014.28
2017-09-03T03:00:01.662Z,1014.28
2017-09-03T03:01:01.646Z,1014.26
2017-09-03T03:02:01.643Z,1014.23
2017-09-03T03:03:01.628Z,1014.24
2017-09-03T03:04:01.617Z,1014.27
2017-09-03T03:05:01.647Z,1014.29
2017-09-03T03:06:01.598Z,1014.32
2017-09-03T03:07:01.587Z,1014.30
2017-09-03T03:08:01.577Z,1014.31
2017-09-03T03:09:01.572Z,1014.29
2017-09-03T03:10:01.561Z,1014.24
2017-09-03T03:11:01.549Z,1014.27
2017-09-03T03:12:01.540Z,1014.30
2017-09-03T03:13:01.543Z,1014.30
2017-09-03T03:14:01.519Z,1014.29
2017-09-03T03:15:01.510Z,1014.30
2017-09-03T03:16:01.499Z,1014.27
2017-09-03T03:17:01.485Z,1014.26
2017-09-03T03:18:01.475Z,1014.26
2017-09-03T03:19:01.466Z,1014.21
2017-09-03T03:20:01.455Z,1014.28
2017-09-03T03:21:01.443Z,1014.29
2017-09-03T03:22:01.434Z,1014.27
2017-09-03T03:23:01.423Z,1014.25
2017-09-03T03:24:01.414Z,1014.27
2017-09-03T03:25:01.407Z,1014.25
2017-09-03T03:26:01.398Z,1014.26
2017-09-03T03:27:01.386Z,1014.27
2017-09-03T03:28:01.377Z,1014.28
2017-09-03T03:29:01.366Z,1014.23
2017-09-03T03:30:01.357Z,1014.26
2017-09-03T03:31:01.353Z,1014.22
2017-09-03T03:32:01.336Z,1014.25
2017-09-03T03:33:01.319Z,1014.21
2017-09-03T03:34:01.310Z,1014.19
2017-09-03T03:35:01.301Z,1014.21
2017-09-03T03:36:01.288Z,1014.17
2017-09-03T03:37:01.283Z,1014.17
2017-09-03T03:38:01.269Z,1014.17
2017-09-03T03:39:01.258Z,1014.14
2017-09-03T03:40:01.247Z,1014.09
2017-09-03T03:41:01.243Z,1014.08
2017-09-03T03:42:01.243Z,1014.10
2017-09-03T03:43:01.222Z,1014.09
2017-09-03T03:44:01.210Z,1014.09
2017-09-03T03:45:01.196Z,1014.06
2017-09-03T03:46:01.186Z,1014.06
2017-09-03T03:47:01.177Z,1014.06
2017-09-03T03:48:01.164Z,1014.07
2017-09-03T03:49:01.161Z,1014.02
2017-09-03T03:50:01.148Z,1014.05
2017-09-03T03:51:01.138Z,1014.06
2017-09-03T03:52:01.128Z,1014.05
2017-09-03T03:53:01.117Z,1014.06
2017-09-03T03:54:01.108Z,1014.04
2017-09-03T03:55:01.097Z,1014.06
2017-09-03T03:56:01.086Z,1014.04
2017-09-03T03:57:01.071Z,1014.05
2017-09-03T03:58:01.062Z,1014.07
2017-09-03T03:59:01.052Z,1014.05
2017-09-03T04:00:01.040Z,1014.01
2017-09-03T04:01:01.031Z,1014.01
2017-09-03T04:02:01.021Z,1014.01
2017-09-03T04:03:01.009Z,1014.04
2017-09-03T04:04:00.999Z,1014.02
2017-09-03T04:05:00.992Z,1014.00
2017-09-03T04:06:00.982Z,1013.99
2017-09-03T04:07:00.972Z,1014.02
2017-09-03T04:08:00.962Z,1014.05
2017-09-03T04:09:00.950Z,1014.00
2017-09-03T04:10:00.941Z,1013.99
2017-09-03T04:11:00.930Z,1014.00
2017-09-03T04:12:00.926Z,1013.99
2017-09-03T04:13:00.905Z,1013.96
2017-09-03T04:14:00.894Z,1013.99
2017-09-03T04:15:00.884Z,1013.95
2017-09-03T04:16:00.874Z,1013.96
2017-09-03T04:17:00.862Z,1013.97
2017-09-03T04:18:00.852Z,1013.97
2017-09-03T04:19:00.842Z,1013.97
2017-09-03T04:20:00.832Z,1013.92
2017-09-03T04:21:00.826Z,1013.90
2017-09-03T04:22:00.815Z,1013.93
2017-09-03T04:23:00.806Z,1013.93
2017-09-03T04:24:00.794Z,1013.97
2017-09-03T04:25:00.785Z,1013.96
2017-09-03T04:26:00.774Z,1013.92
2017-09-03T04:27:00.766Z,1014.02
2017-09-03T04:28:00.753Z,1014.02
2017-09-03T04:29:00.738Z,1014.05
2017-09-03T04:30:00.727Z,1013.99
2017-09-03T04:31:00.718Z,1013.94
2017-09-03T04:32:00.712Z,1013.95
2017-09-03T04:33:00.696Z,1013.93
2017-09-03T04:34:00.686Z,1013.94
2017-09-03T04:35:00.675Z,1013.96
2017-09-03T04:36:00.663Z,1013.88
2017-09-03T04:37:00.658Z,1013.91
2017-09-03T04:38:00.648Z,1013.87
2017-09-03T04:39:00.637Z,1013.95
2017-09-03T04:40:00.630Z,1013.91
2017-09-03T04:41:00.618Z,1013.93
2017-09-03T04:42:00.606Z,1013.95
2017-09-03T04:43:00.595Z,1013.96
2017-09-03T04:44:00.583Z,1013.99
2017-09-03T04:45:00.569Z,1013.92
2017-09-03T04:46:00.561Z,1013.92
2017-09-03T04:47:00.549Z,1013.92
2017-09-03T04:48:00.538Z,1013.91
2017-09-03T04:49:00.534Z,1013.89
2017-09-03T04:50:00.520Z,1013.89
2017-09-03T04:51:00.512Z,1013.92
2017-09-03T04:52:00.500Z,1013.94
2017-09-03T04:53:00.484Z,1013.93
2017-09-03T04:54:00.478Z,1013.90
2017-09-03T04:55:00.464Z,1013.91
2017-09-03T04:56:00.453Z,1013.92
2017-09-03T04:57:00.442Z,1013.93
2017-09-03T04:58:00.432Z,1013.94
2017-09-03T04:59:00.422Z,1013.90
2017-09-03T05:00:00.412Z,1013.91
2017-09-03T05:01:00.404Z,1013.92
2017-09-03T05:02:00.395Z,1013.94
2017-09-03T05:03:00.386Z,1013.95
2017-09-03T05:04:00.374Z,1013.96
2017-09-03T05:05:00.364Z,1013.96
2017-09-03T05:06:00.354Z,1013.96
2017-09-03T05:07:00.343Z,1013.91
2017-09-03T05:08:00.331Z,1013.95
2017-09-03T05:09:00.319Z,1013.91
2017-09-03T05:10:00.307Z,1013.94
2017-09-03T05:11:00.298Z,1013.94
2017-09-03T05:12:00.285Z,1013.92
2017-09-03T05:13:00.276Z,1013.90
2017-09-03T05:14:00.266Z,1013.90
2017-09-03T05:15:00.255Z,1013.92
2017-09-03T05:16:00.245Z,1013.95
2017-09-03T05:17:00.239Z,1014.00
2017-09-03T05:18:00.228Z,1013.95
2017-09-03T05:19:00.219Z,1013.96
2017-09-03T05:20:00.208Z,1014.00
2017-09-03T05:21:00.198Z,1014.01
2017-09-03T05:22:00.189Z,1014.03
2017-09-03T05:23:00.177Z,1014.02
2017-09-03T05:24:00.168Z,1014.02
2017-09-03T05:25:00.154Z,1014.04
2017-09-03T05:26:00.143Z,1014.02
2017-09-03T05:27:00.135Z,1014.06
2017-09-03T05:28:00.124Z,1014.03
2017-09-03T05:29:00.113Z,1014.06
2017-09-03T05:30:00.105Z,1014.07
2017-09-03T05:31:00.095Z,1014.08
2017-09-03T05:32:00.085Z,1014.10
2017-09-03T05:33:00.080Z,1014.08
2017-09-03T05:34:00.071Z,1014.12
2017-09-03T05:35:00.062Z,1014.12
2017-09-03T05:36:00.063Z,1014.10
2017-09-03T05:37:00.045Z,1014.12
2017-09-03T05:38:00.034Z,1014.20
2017-09-03T05:39:00.026Z,1014.14
2017-09-03T05:40:00.017Z,1014.18
2017-09-03T05:41:00.004Z,1014.20
2017-09-03T05:41:59.996Z,1014.25
2017-09-03T05:42:59.989Z,1014.22
2017-09-03T05:43:59.979Z,1014.28
2017-09-03T05:44:59.971Z,1014.27
2017-09-03T05:45:59.962Z,1014.27
2017-09-03T05:46:59.956Z,1014.38
2017-09-03T05:47:59.947Z,1014.33
2017-09-03T05:48:59.944Z,1014.38
2017-09-03T05:49:59.940Z,1014.37
2017-09-03T05:50:59.929Z,1014.38
2017-09-03T05:51:59.921Z,1014.44
2017-09-03T05:52:59.916Z,1014.39
2017-09-03T05:53:59.910Z,1014.45
2017-09-03T05:54:59.903Z,1014.49
2017-09-03T05:55:59.894Z,1014.43
2017-09-03T05:56:59.885Z,1014.46
2017-09-03T05:57:59.879Z,1014.49
2017-09-03T05:58:59.873Z,1014.51
2017-09-03T05:59:59.867Z,1014.56
2017-09-03T06:00:59.862Z,1014.59
2017-09-03T06:01:59.856Z,1014.56
2017-09-03T06:02:59.851Z,1014.61
2017-09-03T06:03:59.844Z,1014.53
2017-09-03T06:04:59.843Z,1014.54
2017-09-03T06:05:59.839Z,1014.59
2017-09-03T06:06:59.836Z,1014.59
2017-09-03T06:07:59.827Z,1014.64
2017-09-03T06:08:59.822Z,1014.61
2017-09-03T06:09:59.817Z,1014.63
2017-09-03T06:10:59.813Z,1014.63
2017-09-03T06:11:59.808Z,1014.66
2017-09-03T06:12:59.801Z,1014.64
2017-09-03T06:13:59.796Z,1014.66
2017-09-03T06:14:59.791Z,1014.66
2017-09-03T06:15:59.786Z,1014.64
2017-09-03T06:16:59.784Z,1014.70
2017-09-03T06:17:59.780Z,1014.70
2017-09-03T06:18:59.776Z,1014.72
2017-09-03T06:19:59.772Z,1014.67
2017-09-03T06:20:59.774Z,1014.70
2017-09-03T06:21:59.768Z,1014.71
2017-09-03T06:22:59.767Z,1014.68
2017-09-03T06:23:59.762Z,1014.71
2017-09-03T06:24:59.760Z,1014.71
2017-09-03T06:25:59.757Z,1014.76
2017-09-03T06:26:59.754Z,1014.75
2017-09-03T06:27:59.753Z,1014.79
2017-09-03T06:28:59.744Z,1014.81
2017-09-03T06:29:59.743Z,1014.84
2017-09-03T06:30:59.741Z,1014.83
2017-09-03T06:31:59.737Z,1014.86
2017-09-03T06:32:59.734Z,1014.82
2017-09-03T06:33:59.733Z,1014.84
2017-09-03T06:34:59.731Z,1014.87
2017-09-03T06:35:59.735Z,1014.87
2017-09-03T06:36:59.733Z,1014.91
2017-09-03T06:37:59.729Z,1014.93
2017-09-03T06:38:59.729Z,1014.97
2017-09-03T06:39:59.726Z,1015.00
2017-09-03T06:40:59.726Z,1015.00
2017-09-03T06:41:59.725Z,1015.00
2017-09-03T06:42:59.737Z,1015.01
2017-09-03T06:43:59.724Z,1015.03
2017-09-03T06:44:59.718Z,1015.05
2017-09-03T06:45:59.718Z,1014.99
2017-09-03T06:46:59.718Z,1015.08
2017-09-03T06:47:59.720Z,1015.06
2017-09-03T06:48:59.718Z,1015.08
2017-09-03T06:49:59.717Z,1015.08
2017-09-03T06:50:59.717Z,1015.02
2017-09-03T06:51:59.716Z,1015.02
2017-09-03T06:52:59.722Z,1015.08
2017-09-03T06:53:59.723Z,1015.09
2017-09-03T06:54:59.723Z,1015.05
2017-09-03T06:55:59.729Z,1015.08
2017-09-03T06:56:59.719Z,1015.10
2017-09-03T06:57:59.720Z,1015.11
2017-09-03T06:58:59.721Z,1015.12
2017-09-03T06:59:59.720Z,1015.09
2017-09-03T07:00:59.740Z,1015.09
2017-09-03T07:01:59.729Z,1015.11
2017-09-03T07:02:59.729Z,1015.14
2017-09-03T07:03:59.729Z,1015.21
2017-09-03T07:04:59.732Z,1015.16
2017-09-03T07:05:59.732Z,1015.15
2017-09-03T07:06:59.736Z,1015.17
2017-09-03T07:07:59.736Z,1015.20
2017-09-03T07:08:59.735Z,1015.22
2017-09-03T07:09:59.736Z,1015.26
2017-09-03T07:10:59.739Z,1015.27
2017-09-03T07:11:59.741Z,1015.29
2017-09-03T07:12:59.743Z,1015.35
2017-09-03T07:13:59.745Z,1015.35
2017-09-03T07:14:59.747Z,1015.30
2017-09-03T07:15:59.753Z,1015.35
2017-09-03T07:16:59.758Z,1015.36
2017-09-03T07:17:59.759Z,1015.32
2017-09-03T07:18:59.763Z,1015.34
2017-09-03T07:19:59.765Z,1014.60
2017-09-03T07:20:59.771Z,1014.67
2017-09-03T07:21:59.773Z,1014.65
2017-09-03T07:22:59.777Z,1014.65
2017-09-03T07:23:59.783Z,1014.64
2017-09-03T07:24:59.780Z,1014.65
2017-09-03T07:25:59.782Z,1014.63
2017-09-03T07:26:59.787Z,1014.62
2017-09-03T07:27:59.791Z,1014.59
2017-09-03T07:28:59.794Z,1014.60
2017-09-03T07:29:59.797Z,1014.69
2017-09-03T07:30:59.803Z,1014.65
2017-09-03T07:31:59.807Z,1014.66
2017-09-03T07:32:59.814Z,1014.69
2017-09-03T07:33:59.818Z,1014.68
2017-09-03T07:34:59.825Z,1014.67
2017-09-03T07:35:59.827Z,1014.71
2017-09-03T07:36:59.833Z,1014.69
2017-09-03T07:37:59.838Z,1014.72
2017-09-03T07:38:59.842Z,1014.70
2017-09-03T07:39:59.846Z,1014.72
2017-09-03T07:40:59.847Z,1014.70
2017-09-03T07:41:59.853Z,1014.74
2017-09-03T07:42:59.857Z,1014.78
2017-09-03T07:43:59.861Z,1014.82
2017-09-03T07:44:59.868Z,1014.78
2017-09-03T07:45:59.871Z,1014.73
2017-09-03T07:46:59.877Z,1014.76
2017-09-03T07:47:59.883Z,1014.78
2017-09-03T07:48:59.893Z,1014.77
2017-09-03T07:49:59.899Z,1014.73
2017-09-03T07:50:59.904Z,1014.74
2017-09-03T07:51:59.909Z,1014.69
2017-09-03T07:52:59.915Z,1014.74
2017-09-03T07:53:59.925Z,1014.70
2017-09-03T07:54:59.929Z,1014.70
2017-09-03T07:55:59.933Z,1014.71
2017-09-03T07:56:59.936Z,1014.72
2017-09-03T07:57:59.941Z,1014.70
2017-09-03T07:58:59.947Z,1014.75
2017-09-03T07:59:59.954Z,1014.74
2017-09-03T08:00:59.965Z,1014.75
2017-09-03T08:01:59.971Z,1014.79
2017-09-03T08:02:59.978Z,1014.77
2017-09-03T08:03:59.984Z,1014.76
2017-09-03T08:04:59.988Z,1014.77
2017-09-03T08:05:59.996Z,1014.79
2017-09-03T08:07:00.005Z,1014.78
2017-09-03T08:08:00.010Z,1014.80
2017-09-03T08:09:00.016Z,1014.83
2017-09-03T08:10:00.025Z,1014.83
2017-09-03T08:11:00.033Z,1014.80
2017-09-03T08:12:00.040Z,1014.81
2017-09-03T08:13:00.055Z,1014.81
2017-09-03T08:14:00.060Z,1014.79
2017-09-03T08:15:00.070Z,1014.78
2017-09-03T08:16:00.076Z,1014.79
2017-09-03T08:17:00.088Z,1014.79
2017-09-03T08:18:00.093Z,1014.75
2017-09-03T08:19:00.125Z,1014.76
2017-09-03T08:20:00.108Z,1014.77
2017-09-03T08:21:00.114Z,1014.73
2017-09-03T08:22:00.123Z,1014.72
2017-09-03T08:23:00.132Z,1014.72
2017-09-03T08:24:00.146Z,1014.78
2017-09-03T08:25:00.148Z,1014.80
2017-09-03T08:26:00.158Z,1014.80
2017-09-03T08:27:00.170Z,1014.75
2017-09-03T08:28:00.332Z,1014.77
2017-09-03T08:29:00.359Z,1014.77
2017-09-03T08:30:00.256Z,1014.73
2017-09-03T08:31:00.264Z,1014.77
2017-09-03T08:32:00.309Z,1014.78
2017-09-03T08:33:00.322Z,1014.78
2017-09-03T08:34:00.292Z,1014.83
2017-09-03T08:35:00.450Z,1014.79
2017-09-03T08:36:00.398Z,1014.83
2017-09-03T08:37:00.298Z,1014.79
2017-09-03T08:38:00.293Z,1014.78
2017-09-03T08:39:00.319Z,1014.78
2017-09-03T08:40:00.297Z,1014.77
2017-09-03T08:41:00.307Z,1014.79
2017-09-03T08:42:00.317Z,1014.78
2017-09-03T08:43:00.337Z,1014.76
2017-09-03T08:44:00.342Z,1014.76
2017-09-03T08:45:00.381Z,1014.72
2017-09-03T08:46:00.526Z,1014.73
2017-09-03T08:47:00.428Z,1014.75
2017-09-03T08:48:00.468Z,1014.76
2017-09-03T08:49:00.409Z,1014.72
2017-09-03T08:50:00.513Z,1014.73
2017-09-03T08:51:00.492Z,1014.77
2017-09-03T08:52:00.465Z,1014.73
2017-09-03T08:53:00.524Z,1014.73
2017-09-03T08:54:00.522Z,1014.70
2017-09-03T08:55:00.471Z,1014.70
2017-09-03T08:56:00.538Z,1014.70
2017-09-03T08:57:00.505Z,1014.67
2017-09-03T08:58:00.493Z,1014.68
2017-09-03T08:59:00.512Z,1014.65
2017-09-03T09:00:00.523Z,1014.64
2017-09-03T09:01:00.682Z,1014.66
2017-09-03T09:02:00.714Z,1014.65
2017-09-03T09:03:00.626Z,1014.62
2017-09-03T09:04:00.718Z,1014.58
2017-09-03T09:05:00.601Z,1014.58
2017-09-03T09:06:00.731Z,1014.57
2017-09-03T09:07:00.672Z,1014.55
2017-09-03T09:08:00.682Z,1014.57
2017-09-03T09:09:00.718Z,1014.56
2017-09-03T09:10:00.732Z,1014.51
2017-09-03T09:11:00.744Z,1014.50
2017-09-03T09:12:00.779Z,1014.46
2017-09-03T09:13:00.750Z,1014.45
2017-09-03T09:14:00.707Z,1014.41
2017-09-03T09:15:00.715Z,1014.41
2017-09-03T09:16:00.725Z,1014.40
2017-09-03T09:17:00.742Z,1014.43
2017-09-03T09:18:00.774Z,1014.42
2017-09-03T09:19:00.852Z,1014.46
2017-09-03T09:20:00.835Z,1014.44
2017-09-03T09:21:00.877Z,1014.43
2017-09-03T09:22:00.814Z,1014.51
2017-09-03T09:23:00.917Z,1014.48
2017-09-03T09:24:00.939Z,1014.52
2017-09-03T09:25:00.877Z,1014.53
2017-09-03T09:26:01.021Z,1014.58
2017-09-03T09:27:00.933Z,1014.56
2017-09-03T09:28:00.979Z,1014.60
2017-09-03T09:29:00.992Z,1014.73
2017-09-03T09:30:00.974Z,1014.68
2017-09-03T09:31:00.942Z,1014.55
2017-09-03T09:32:00.947Z,1014.58
2017-09-03T09:33:00.956Z,1014.54
2017-09-03T09:34:02.223Z,1014.46
2017-09-03T09:35:01.075Z,1014.48
2017-09-03T09:36:01.060Z,1014.56
2017-09-03T09:37:01.125Z,1014.51
2017-09-03T09:38:01.081Z,1014.38
2017-09-03T09:39:01.066Z,1014.39
2017-09-03T09:40:01.141Z,1014.39
2017-09-03T09:41:01.173Z,1014.38
2017-09-03T09:42:01.471Z,1014.39
2017-09-03T09:43:01.180Z,1014.39
2017-09-03T09:44:01.171Z,1014.39
2017-09-03T09:45:01.162Z,1014.28
2017-09-03T09:46:01.269Z,1014.34
2017-09-03T09:47:01.169Z,1014.32
2017-09-03T09:48:01.188Z,1014.32
2017-09-03T09:49:01.202Z,1014.34
2017-09-03T09:50:01.242Z,1014.32
2017-09-03T09:51:01.292Z,1014.28
2017-09-03T09:52:01.342Z,1014.25
2017-09-03T09:53:01.301Z,1014.27
2017-09-03T09:54:01.351Z,1014.24
2017-09-03T09:55:01.315Z,1014.21
2017-09-03T09:56:01.300Z,1014.22
2017-09-03T09:57:01.356Z,1014.24
2017-09-03T09:58:01.415Z,1014.26
2017-09-03T09:59:01.465Z,1014.20
2017-09-03T10:00:01.418Z,1014.16
2017-09-03T10:01:01.490Z,1014.16
2017-09-03T10:02:01.501Z,1014.16
2017-09-03T10:03:01.408Z,1014.19
2017-09-03T10:04:01.433Z,1014.18
2017-09-03T10:05:01.434Z,1014.13
2017-09-03T10:06:01.507Z,1014.15
2017-09-03T10:07:01.508Z,1014.16
2017-09-03T10:08:01.592Z,1014.14
2017-09-03T10:09:01.616Z,1014.15
2017-09-03T10:10:01.534Z,1014.06
2017-09-03T10:11:01.551Z,1014.06
2017-09-03T10:12:01.629Z,1014.11
2017-09-03T10:13:01.640Z,1014.07
2017-09-03T10:14:01.625Z,1014.09
2017-09-03T10:15:01.592Z,1014.03
2017-09-03T10:16:01.595Z,1014.01
2017-09-03T10:17:01.715Z,1013.88
2017-09-03T10:18:01.666Z,1013.93
2017-09-03T10:19:01.636Z,1013.96
2017-09-03T10:20:01.653Z,1013.94
2017-09-03T10:21:01.669Z,1013.91
2017-09-03T10:22:01.808Z,1013.91
2017-09-03T10:23:01.828Z,1013.93
2017-09-03T10:24:01.764Z,1013.90
2017-09-03T10:25:01.892Z,1013.91
2017-09-03T10:26:01.857Z,1013.60
2017-09-03T10:27:01.881Z,1013.64
2017-09-03T10:28:01.926Z,1013.82
2017-09-03T10:29:01.861Z,1013.85
2017-09-03T10:30:01.887Z,1013.80
2017-09-03T10:31:01.908Z,1013.81
2017-09-03T10:32:01.920Z,1013.92
2017-09-03T10:33:01.908Z,1013.79
2017-09-03T10:34:01.902Z,1013.81
2017-09-03T10:35:01.907Z,1013.88
2017-09-03T10:36:01.867Z,1013.78
2017-09-03T10:37:01.878Z,1013.67
2017-09-03T10:38:01.992Z,1013.54
2017-09-03T10:39:01.978Z,1013.54
2017-09-03T10:40:01.975Z,1013.49
2017-09-03T10:41:02.041Z,1013.71
2017-09-03T10:42:02.067Z,1013.54
2017-09-03T10:43:02.020Z,1013.69
2017-09-03T10:44:02.020Z,1013.72
2017-09-03T10:45:02.002Z,1013.70
2017-09-03T10:46:02.089Z,1013.71
2017-09-03T10:47:02.014Z,1013.70
2017-09-03T10:48:02.051Z,1013.73
2017-09-03T10:49:02.065Z,1013.71
2017-09-03T10:50:02.051Z,1013.71
2017-09-03T10:51:02.046Z,1013.51
2017-09-03T10:52:02.032Z,1013.48
2017-09-03T10:53:02.049Z,1013.46
2017-09-03T10:54:02.086Z,1013.40
2017-09-03T10:55:02.100Z,1013.40
2017-09-03T10:56:02.090Z,1013.32
2017-09-03T10:57:02.140Z,1013.31
2017-09-03T10:58:02.147Z,1013.41
2017-09-03T10:59:02.145Z,1013.47
2017-09-03T11:00:02.117Z,1013.51
2017-09-03T11:01:02.230Z,1013.53
2017-09-03T11:02:02.242Z,1013.55
2017-09-03T11:03:02.253Z,1013.54
2017-09-03T11:04:02.225Z,1013.53
2017-09-03T11:05:02.315Z,1013.53
2017-09-03T11:06:02.198Z,1013.52
2017-09-03T11:07:02.173Z,1013.49
2017-09-03T11:08:02.181Z,1013.53
2017-09-03T11:09:02.196Z,1013.47
2017-09-03T11:10:02.352Z,1013.55
2017-09-03T11:11:02.311Z,1013.29
2017-09-03T11:12:02.349Z,1013.47
2017-09-03T11:13:02.285Z,1013.29
2017-09-03T11:14:02.246Z,1013.47
2017-09-03T11:15:02.402Z,1013.45
2017-09-03T11:16:02.300Z,1013.38
2017-09-03T11:17:02.390Z,1013.41
2017-09-03T11:18:02.368Z,1013.35
2017-09-03T11:19:02.406Z,1013.32
2017-09-03T11:20:02.387Z,1013.31
2017-09-03T11:21:02.416Z,1013.26
2017-09-03T11:22:02.421Z,1013.27
2017-09-03T11:23:02.398Z,1013.20
2017-09-03T11:24:02.341Z,1013.13
2017-09-03T11:25:02.343Z,1013.06
2017-09-03T11:26:02.352Z,1013.06
2017-09-03T11:27:02.420Z,1013.02
2017-09-03T11:28:02.485Z,1012.96
2017-09-03T11:29:02.457Z,1012.96
2017-09-03T11:30:02.448Z,1012.94
2017-09-03T11:31:02.411Z,1012.91
2017-09-03T11:32:02.531Z,1012.84
2017-09-03T11:33:02.474Z,1012.94
2017-09-03T11:34:02.539Z,1012.87
2017-09-03T11:35:02.503Z,1012.84
2017-09-03T11:36:02.560Z,1012.81
2017-09-03T11:37:02.564Z,1012.80
2017-09-03T11:38:02.488Z,1012.81
2017-09-03T11:39:02.556Z,1012.77
2017-09-03T11:40:02.570Z,1012.74
2017-09-03T11:41:02.476Z,1012.68
2017-09-03T11:42:02.473Z,1012.69
2017-09-03T11:43:02.479Z,1012.70
2017-09-03T11:44:02.496Z,1012.66
2017-09-03T11:45:02.548Z,1012.61
2017-09-03T11:46:02.493Z,1012.65
2017-09-03T11:47:02.567Z,1012.59
2017-09-03T11:48:02.636Z,1012.58
2017-09-03T11:49:02.585Z,1012.63
2017-09-03T11:50:02.545Z,1012.63
2017-09-03T11:51:02.584Z,1012.63
2017-09-03T11:52:02.693Z,1012.60
2017-09-03T11:53:02.680Z,1012.57
2017-09-03T11:54:02.612Z,1012.62
2017-09-03T11:55:02.671Z,1012.63
2017-09-03T11:56:02.537Z,1012.57
2017-09-03T11:57:02.538Z,1012.51
2017-09-03T11:58:02.542Z,1012.55
2017-09-03T11:59:02.543Z,1012.51
2017-09-03T12:00:02.546Z,1012.52
2017-09-03T12:01:02.549Z,1012.53
2017-09-03T12:02:02.553Z,1012.56
2017-09-03T12:03:02.561Z,1012.56
2017-09-03T12:04:02.569Z,1012.51
2017-09-03T12:05:03.749Z,1012.54